createdAt,value
2017-09-28T00:00:15.354Z,926.19
2017-09-28T00:00:34.661Z,926.22
2017-09-28T00:00:53.446Z,926.18
2017-09-28T00:01:12.752Z,926.19
2017-09-28T00:01:31.019Z,926.19
2017-09-28T00:01:49.813Z,926.22
2017-09-28T00:02:09.094Z,926.2
2017-09-28T00:02:28.485Z,926.23
2017-09-28T00:02:47.800Z,926.22
2017-09-28T00:03:06.570Z,926.18
2017-09-28T00:03:25.313Z,926.21
2017-09-28T00:03:44.585Z,926.2
2017-09-28T00:04:03.352Z,926.18
2017-09-28T00:04:22.636Z,926.21
2017-09-28T00:04:41.405Z,926.22
2017-09-28T00:04:59.661Z,926.21
2017-09-28T00:05:18.990Z,926.2
2017-09-28T00:05:37.254Z,926.2
2017-09-28T00:05:54.982Z,926.23
2017-09-28T00:06:13.752Z,926.22
2017-09-28T00:06:33.073Z,926.23
2017-09-28T00:06:52.398Z,926.21
2017-09-28T00:07:10.636Z,926.16
2017-09-28T00:07:30.056Z,926.16
2017-09-28T00:07:49.363Z,926.19
2017-09-28T00:08:07.632Z,926.23
2017-09-28T00:08:25.876Z,926.21
2017-09-28T00:08:45.174Z,926.18
2017-09-28T00:09:03.412Z,926.19
2017-09-28T00:09:22.199Z,926.23
2017-09-28T00:09:41.518Z,926.17
2017-09-28T00:09:59.234Z,926.18
2017-09-28T00:10:17.483Z,926.19
2017-09-28T00:10:35.726Z,926.19
2017-09-28T00:10:55.010Z,926.18
2017-09-28T00:11:13.265Z,926.17
2017-09-28T00:11:31.510Z,926.18
2017-09-28T00:11:49.218Z,926.12
2017-09-28T00:12:07.475Z,926.13
2017-09-28T00:12:26.764Z,926.13
2017-09-28T00:12:45.512Z,926.13
2017-09-28T00:13:04.822Z,926.12
2017-09-28T00:13:24.117Z,926.13
2017-09-28T00:13:43.406Z,926.12
2017-09-28T00:14:02.201Z,926.12
2017-09-28T00:14:20.470Z,926.11
2017-09-28T00:14:38.710Z,926.11
2017-09-28T00:14:56.989Z,926.15
2017-09-28T00:15:15.264Z,926.13
2017-09-28T00:15:34.068Z,926.15
2017-09-28T00:15:52.837Z,926.13
2017-09-28T00:16:11.612Z,926.13
2017-09-28T00:16:30.915Z,926.13
2017-09-28T00:16:49.712Z,926.12
2017-09-28T00:17:08.989Z,926.12
2017-09-28T00:17:27.770Z,926.15
2017-09-28T00:17:47.060Z,926.13
2017-09-28T00:18:05.862Z,926.1
2017-09-28T00:18:25.173Z,926.15
2017-09-28T00:18:44.480Z,926.15
2017-09-28T00:19:03.267Z,926.12
2017-09-28T00:19:22.563Z,926.15
2017-09-28T00:19:41.309Z,926.19
2017-09-28T00:20:00.590Z,926.14
2017-09-28T00:20:19.369Z,926.18
2017-09-28T00:20:38.166Z,926.14
2017-09-28T00:20:56.946Z,926.17
2017-09-28T00:21:14.668Z,926.18
2017-09-28T00:21:32.939Z,926.16
2017-09-28T00:21:52.248Z,926.18
2017-09-28T00:22:10.484Z,926.16
2017-09-28T00:22:29.285Z,926.15
2017-09-28T00:22:47.552Z,926.13
2017-09-28T00:23:06.310Z,926.16
2017-09-28T00:23:24.555Z,926.15
2017-09-28T00:23:41.756Z,926.16
2017-09-28T00:24:00.537Z,926.14
2017-09-28T00:24:19.308Z,926.16
2017-09-28T00:24:38.078Z,926.14
2017-09-28T00:24:57.387Z,926.15
2017-09-28T00:25:15.670Z,926.11
2017-09-28T00:25:34.984Z,926.14
2017-09-28T00:25:53.761Z,926.17
2017-09-28T00:26:13.077Z,926.15
2017-09-28T00:26:31.865Z,926.13
2017-09-28T00:26:50.644Z,926.11
2017-09-28T00:27:08.368Z,926.11
2017-09-28T00:27:27.124Z,926.1
2017-09-28T00:27:46.417Z,926.1
2017-09-28T00:28:05.224Z,926.13
2017-09-28T00:28:23.999Z,926.13
2017-09-28T00:28:43.311Z,926.09
2017-09-28T00:29:01.545Z,926.09
2017-09-28T00:29:20.841Z,926.12
2017-09-28T00:29:40.181Z,926.12
2017-09-28T00:29:58.969Z,926.1
2017-09-28T00:30:17.746Z,926.11
2017-09-28T00:30:37.019Z,926.1
2017-09-28T00:30:56.341Z,926.15
2017-09-28T00:31:14.575Z,926.12
2017-09-28T00:31:33.334Z,926.14
2017-09-28T00:31:52.106Z,926.1
2017-09-28T00:32:10.389Z,926.12
2017-09-28T00:32:28.619Z,926.11
2017-09-28T00:32:47.922Z,926.14
2017-09-28T00:33:21.235Z,926.15
2017-09-28T00:33:40.000Z,926.09
2017-09-28T00:34:17.885Z,926.1
2017-09-28T00:34:36.767Z,926.16
2017-09-28T00:34:56.908Z,926.15
2017-09-28T00:35:16.092Z,926.13
2017-09-28T00:35:35.308Z,926.1
2017-09-28T00:35:54.215Z,926.15
2017-09-28T00:36:13.141Z,926.14
2017-09-28T00:36:31.539Z,926.18
2017-09-28T00:36:50.312Z,926.14
2017-09-28T00:37:09.078Z,926.11
2017-09-28T00:37:28.365Z,926.15
2017-09-28T00:37:46.620Z,926.15
2017-09-28T00:38:05.928Z,926.15
2017-09-28T00:38:25.222Z,926.2
2017-09-28T00:38:43.989Z,926.17
2017-09-28T00:39:02.817Z,926.16
2017-09-28T00:39:20.548Z,926.18
2017-09-28T00:39:38.832Z,926.19
2017-09-28T00:39:57.614Z,926.18
2017-09-28T00:40:16.389Z,926.15
2017-09-28T00:40:35.663Z,926.15
2017-09-28T00:40:53.903Z,926.17
2017-09-28T00:41:12.678Z,926.15
2017-09-28T00:41:31.451Z,926.15
2017-09-28T00:41:50.237Z,926.18
2017-09-28T00:42:09.001Z,926.19
2017-09-28T00:42:27.918Z,926.2
2017-09-28T00:42:47.205Z,926.22
2017-09-28T00:43:04.919Z,926.19
2017-09-28T00:43:23.681Z,926.2
2017-09-28T00:43:42.465Z,926.2
2017-09-28T00:44:00.698Z,926.23
2017-09-28T00:44:19.996Z,926.21
2017-09-28T00:44:39.341Z,926.19
2017-09-28T00:44:58.112Z,926.24
2017-09-28T00:45:15.853Z,926.21
2017-09-28T00:45:34.088Z,926.19
2017-09-28T00:45:53.371Z,926.2
2017-09-28T00:46:12.152Z,926.21
2017-09-28T00:46:30.947Z,926.2
2017-09-28T00:46:50.246Z,926.2
2017-09-28T00:47:09.018Z,926.25
2017-09-28T00:47:28.317Z,926.22
2017-09-28T00:47:47.587Z,926.19
2017-09-28T00:48:06.346Z,926.19
2017-09-28T00:48:25.673Z,926.2
2017-09-28T00:48:44.991Z,926.2
2017-09-28T00:49:03.775Z,926.21
2017-09-28T00:49:21.004Z,926.22
2017-09-28T00:49:40.289Z,926.22
2017-09-28T00:49:59.587Z,926.2
2017-09-28T00:50:18.378Z,926.21
2017-09-28T00:50:37.690Z,926.2
2017-09-28T00:50:55.404Z,926.17
2017-09-28T00:51:14.692Z,926.2
2017-09-28T00:51:32.983Z,926.21
2017-09-28T00:51:50.699Z,926.19
2017-09-28T00:52:09.459Z,926.2
2017-09-28T00:52:28.744Z,926.2
2017-09-28T00:52:47.511Z,926.18
2017-09-28T00:53:06.272Z,926.14
2017-09-28T00:53:25.034Z,926.19
2017-09-28T00:53:43.810Z,926.19
2017-09-28T00:54:01.025Z,926.17
2017-09-28T00:54:19.807Z,926.17
2017-09-28T00:54:38.572Z,926.17
2017-09-28T00:54:57.377Z,926.12
2017-09-28T00:55:16.178Z,926.13
2017-09-28T00:55:35.492Z,926.12
2017-09-28T00:55:53.772Z,926.1
2017-09-28T00:56:11.999Z,926.12
2017-09-28T00:56:31.293Z,926.15
2017-09-28T00:56:50.571Z,926.17
2017-09-28T00:57:09.858Z,926.09
2017-09-28T00:57:28.786Z,926.1
2017-09-28T00:57:47.533Z,926.15
2017-09-28T00:58:05.789Z,926.13
2017-09-28T00:58:25.100Z,926.12
2017-09-28T00:58:44.403Z,926.13
2017-09-28T00:59:03.693Z,926.1
2017-09-28T00:59:23.003Z,926.09
2017-09-28T00:59:41.242Z,926.09
2017-09-28T00:59:59.487Z,926.09
2017-09-28T01:00:18.274Z,926.09
2017-09-28T01:00:37.575Z,926.08
2017-09-28T01:00:55.849Z,926.04
2017-09-28T01:01:15.151Z,926.11
2017-09-28T01:01:33.940Z,926.08
2017-09-28T01:01:53.246Z,926.11
2017-09-28T01:02:12.568Z,926.07
2017-09-28T01:02:31.608Z,926.1
2017-09-28T01:02:50.892Z,926.07
2017-09-28T01:03:09.653Z,926.04
2017-09-28T01:03:28.424Z,926.08
2017-09-28T01:03:47.699Z,926.06
2017-09-28T01:04:05.959Z,926.08
2017-09-28T01:04:24.749Z,926.04
2017-09-28T01:04:44.037Z,926.09
2017-09-28T01:05:02.801Z,926.1
2017-09-28T01:05:22.092Z,926.06
2017-09-28T01:05:39.299Z,926.09
2017-09-28T01:05:58.078Z,926.11
2017-09-28T01:06:17.368Z,926.08
2017-09-28T01:06:35.625Z,926.11
2017-09-28T01:06:53.867Z,926.12
2017-09-28T01:07:13.171Z,926.12
2017-09-28T01:07:32.450Z,926.1
2017-09-28T01:07:51.241Z,926.09
2017-09-28T01:08:09.510Z,926.09
2017-09-28T01:08:28.276Z,926.1
2017-09-28T01:08:47.063Z,926.1
2017-09-28T01:09:05.818Z,926.09
2017-09-28T01:09:24.588Z,926.08
2017-09-28T01:09:43.884Z,926.07
2017-09-28T01:10:02.658Z,926.1
2017-09-28T01:10:21.432Z,926.09
2017-09-28T01:10:40.733Z,926.09
2017-09-28T01:10:59.547Z,926.09
2017-09-28T01:11:18.395Z,926.07
2017-09-28T01:11:37.161Z,926.09
2017-09-28T01:11:55.943Z,926.09
2017-09-28T01:12:14.698Z,926.12
2017-09-28T01:12:33.598Z,926.09
2017-09-28T01:12:52.899Z,926.07
2017-09-28T01:13:11.166Z,926.09
2017-09-28T01:13:29.945Z,926.1
2017-09-28T01:13:48.716Z,926.07
2017-09-28T01:14:06.456Z,926.1
2017-09-28T01:14:24.693Z,926.07
2017-09-28T01:14:43.486Z,926.05
2017-09-28T01:15:01.740Z,926.07
2017-09-28T01:15:21.033Z,926.08
2017-09-28T01:15:39.280Z,926.02
2017-09-28T01:15:58.580Z,926.06
2017-09-28T01:16:16.835Z,926.05
2017-09-28T01:16:34.582Z,926.11
2017-09-28T01:16:52.847Z,926.13
2017-09-28T01:17:11.612Z,926.1
2017-09-28T01:17:30.906Z,926.12
2017-09-28T01:17:50.207Z,926.14
2017-09-28T01:18:07.906Z,926.14
2017-09-28T01:18:27.196Z,926.11
2017-09-28T01:18:46.486Z,926.13
2017-09-28T01:19:05.786Z,926.16
2017-09-28T01:19:25.092Z,926.13
2017-09-28T01:19:44.398Z,926.13
2017-09-28T01:20:03.154Z,926.12
2017-09-28T01:20:21.404Z,926.17
2017-09-28T01:20:39.167Z,926.18
2017-09-28T01:20:58.450Z,926.18
2017-09-28T01:21:17.232Z,926.18
2017-09-28T01:21:36.530Z,926.17
2017-09-28T01:21:55.817Z,926.15
2017-09-28T01:22:14.585Z,926.19
2017-09-28T01:22:33.331Z,926.15
2017-09-28T01:22:52.092Z,926.15
2017-09-28T01:23:11.407Z,926.16
2017-09-28T01:23:30.157Z,926.16
2017-09-28T01:23:49.448Z,926.16
2017-09-28T01:24:08.750Z,926.18
2017-09-28T01:24:27.003Z,926.18
2017-09-28T01:24:46.294Z,926.17
2017-09-28T01:25:05.569Z,926.19
2017-09-28T01:25:24.846Z,926.18
2017-09-28T01:25:43.087Z,926.17
2017-09-28T01:26:02.368Z,926.17
2017-09-28T01:26:21.651Z,926.2
2017-09-28T01:26:40.944Z,926.21
2017-09-28T01:27:00.212Z,926.2
2017-09-28T01:27:18.982Z,926.22
2017-09-28T01:27:37.227Z,926.2
2017-09-28T01:27:55.502Z,926.19
2017-09-28T01:28:14.275Z,926.19
2017-09-28T01:28:33.069Z,926.24
2017-09-28T01:28:52.334Z,926.2
2017-09-28T01:29:11.608Z,926.21
2017-09-28T01:29:30.360Z,926.21
2017-09-28T01:29:48.623Z,926.24
2017-09-28T01:30:07.400Z,926.2
2017-09-28T01:30:26.184Z,926.22
2017-09-28T01:30:45.477Z,926.26
2017-09-28T01:31:04.242Z,926.19
2017-09-28T01:31:23.498Z,926.22
2017-09-28T01:31:42.262Z,926.22
2017-09-28T01:32:01.519Z,926.25
2017-09-28T01:32:20.794Z,926.24
2017-09-28T01:32:39.668Z,926.22
2017-09-28T01:32:58.977Z,926.25
2017-09-28T01:33:18.261Z,926.24
2017-09-28T01:33:37.561Z,926.23
2017-09-28T01:33:56.854Z,926.21
2017-09-28T01:34:15.622Z,926.27
2017-09-28T01:34:33.869Z,926.23
2017-09-28T01:34:52.650Z,926.26
2017-09-28T01:35:11.421Z,926.26
2017-09-28T01:35:30.214Z,926.27
2017-09-28T01:35:49.503Z,926.26
2017-09-28T01:36:08.282Z,926.29
2017-09-28T01:36:27.579Z,926.29
2017-09-28T01:36:46.899Z,926.27
2017-09-28T01:37:05.664Z,926.26
2017-09-28T01:37:24.972Z,926.28
2017-09-28T01:37:43.775Z,926.29
2017-09-28T01:38:01.497Z,926.28
2017-09-28T01:38:20.811Z,926.29
2017-09-28T01:38:39.582Z,926.3
2017-09-28T01:38:58.875Z,926.33
2017-09-28T01:39:17.623Z,926.32
2017-09-28T01:39:36.405Z,926.29
2017-09-28T01:39:55.701Z,926.34
2017-09-28T01:40:14.483Z,926.33
2017-09-28T01:40:33.250Z,926.32
2017-09-28T01:40:52.033Z,926.31
2017-09-28T01:41:11.369Z,926.32
2017-09-28T01:41:29.623Z,926.31
2017-09-28T01:41:48.401Z,926.33
2017-09-28T01:42:07.706Z,926.34
2017-09-28T01:42:26.511Z,926.35
2017-09-28T01:42:44.874Z,926.36
2017-09-28T01:43:03.676Z,926.36
2017-09-28T01:43:22.572Z,926.38
2017-09-28T01:43:41.938Z,926.39
2017-09-28T01:44:00.700Z,926.41
2017-09-28T01:44:19.975Z,926.38
2017-09-28T01:44:37.290Z,926.39
2017-09-28T01:44:56.059Z,926.37
2017-09-28T01:45:15.380Z,926.39
2017-09-28T01:45:33.616Z,926.4
2017-09-28T01:45:52.908Z,926.41
2017-09-28T01:46:11.155Z,926.42
2017-09-28T01:46:30.483Z,926.42
2017-09-28T01:46:49.771Z,926.47
2017-09-28T01:47:08.031Z,926.43
2017-09-28T01:47:26.805Z,926.43
2017-09-28T01:47:44.521Z,926.45
2017-09-28T01:48:03.825Z,926.44
2017-09-28T01:48:23.246Z,926.43
2017-09-28T01:48:41.748Z,926.46
2017-09-28T01:49:00.644Z,926.47
2017-09-28T01:49:19.962Z,926.47
2017-09-28T01:49:38.726Z,926.49
2017-09-28T01:49:57.496Z,926.53
2017-09-28T01:50:15.714Z,926.53
2017-09-28T01:50:35.164Z,926.54
2017-09-28T01:50:54.749Z,926.52
2017-09-28T01:51:14.307Z,926.55
2017-09-28T01:51:33.141Z,926.48
2017-09-28T01:51:57.714Z,926.52
2017-09-28T01:52:17.041Z,926.53
2017-09-28T01:52:36.425Z,926.52
2017-09-28T01:52:55.817Z,926.56
2017-09-28T01:53:14.607Z,926.54
2017-09-28T01:53:33.542Z,926.52
2017-09-28T01:53:52.366Z,926.5
2017-09-28T01:54:11.889Z,926.51
2017-09-28T01:54:30.211Z,926.55
2017-09-28T01:54:49.521Z,926.51
2017-09-28T01:55:09.220Z,926.53
2017-09-28T01:55:28.027Z,926.55
2017-09-28T01:55:46.789Z,926.56
2017-09-28T01:56:05.637Z,926.55
2017-09-28T01:56:24.432Z,926.57
2017-09-28T01:56:43.791Z,926.55
2017-09-28T01:57:02.618Z,926.56
2017-09-28T01:57:22.267Z,926.57
2017-09-28T01:57:41.576Z,926.58
2017-09-28T01:58:00.350Z,926.59
2017-09-28T01:58:19.150Z,926.57
2017-09-28T01:58:38.461Z,926.6
2017-09-28T01:58:57.747Z,926.59
2017-09-28T01:59:16.520Z,926.57
2017-09-28T01:59:35.833Z,926.58
2017-09-28T01:59:54.609Z,926.61
2017-09-28T02:00:13.936Z,926.61
2017-09-28T02:00:33.244Z,926.59
2017-09-28T02:00:52.525Z,926.6
2017-09-28T02:01:10.760Z,926.64
2017-09-28T02:01:30.085Z,926.66
2017-09-28T02:01:48.845Z,926.61
2017-09-28T02:02:07.615Z,926.61
2017-09-28T02:02:26.917Z,926.62
2017-09-28T02:02:46.354Z,926.63
2017-09-28T02:03:04.661Z,926.61
2017-09-28T02:03:23.940Z,926.63
2017-09-28T02:03:42.780Z,926.61
2017-09-28T02:04:01.536Z,926.61
2017-09-28T02:04:20.319Z,926.61
2017-09-28T02:04:39.610Z,926.56
2017-09-28T02:04:58.989Z,926.52
2017-09-28T02:05:18.400Z,926.52
2017-09-28T02:05:37.177Z,926.51
2017-09-28T02:05:55.956Z,926.57
2017-09-28T02:06:15.289Z,926.55
2017-09-28T02:06:34.656Z,926.52
2017-09-28T02:06:53.992Z,926.51
2017-09-28T02:07:12.264Z,926.51
2017-09-28T02:07:29.996Z,926.51
2017-09-28T02:07:49.321Z,926.5
2017-09-28T02:08:08.095Z,926.5
2017-09-28T02:08:27.438Z,926.55
2017-09-28T02:08:46.800Z,926.54
2017-09-28T02:09:05.045Z,926.53
2017-09-28T02:09:24.365Z,926.54
2017-09-28T02:09:43.127Z,926.54
2017-09-28T02:10:02.419Z,926.49
2017-09-28T02:10:20.685Z,926.5
2017-09-28T02:10:39.465Z,926.52
2017-09-28T02:10:57.722Z,926.52
2017-09-28T02:11:15.436Z,926.51
2017-09-28T02:11:34.229Z,926.52
2017-09-28T02:11:53.046Z,926.5
2017-09-28T02:12:11.400Z,926.51
2017-09-28T02:12:30.308Z,926.48
2017-09-28T02:12:49.313Z,926.51
2017-09-28T02:13:09.170Z,926.52
2017-09-28T02:13:28.598Z,926.5
2017-09-28T02:13:47.957Z,926.53
2017-09-28T02:14:06.759Z,926.51
2017-09-28T02:14:26.112Z,926.51
2017-09-28T02:14:45.423Z,926.51
2017-09-28T02:15:03.689Z,926.51
2017-09-28T02:15:22.984Z,926.5
2017-09-28T02:15:41.230Z,926.52
2017-09-28T02:16:00.016Z,926.52
2017-09-28T02:16:18.789Z,926.51
2017-09-28T02:16:37.572Z,926.5
2017-09-28T02:16:56.877Z,926.54
2017-09-28T02:17:15.662Z,926.52
2017-09-28T02:17:34.959Z,926.52
2017-09-28T02:17:53.731Z,926.51
2017-09-28T02:18:12.560Z,926.49
2017-09-28T02:18:32.281Z,926.51
2017-09-28T02:18:51.830Z,926.47
2017-09-28T02:19:11.278Z,926.48
2017-09-28T02:19:30.634Z,926.47
2017-09-28T02:19:49.934Z,926.46
2017-09-28T02:20:08.190Z,926.45
2017-09-28T02:20:27.544Z,926.47
2017-09-28T02:20:46.841Z,926.45
2017-09-28T02:21:05.624Z,926.48
2017-09-28T02:21:24.945Z,926.45
2017-09-28T02:21:44.252Z,926.46
2017-09-28T02:22:03.053Z,926.45
2017-09-28T02:22:21.840Z,926.45
2017-09-28T02:22:41.128Z,926.48
2017-09-28T02:22:59.394Z,926.46
2017-09-28T02:23:18.789Z,926.48
2017-09-28T02:23:38.132Z,926.46
2017-09-28T02:23:57.417Z,926.5
2017-09-28T02:24:15.668Z,926.46
2017-09-28T02:24:33.932Z,926.47
2017-09-28T02:24:53.288Z,926.49
2017-09-28T02:25:12.074Z,926.49
2017-09-28T02:25:31.366Z,926.48
2017-09-28T02:25:50.660Z,926.52
2017-09-28T02:26:08.400Z,926.5
2017-09-28T02:26:27.171Z,926.46
2017-09-28T02:26:46.432Z,926.45
2017-09-28T02:27:05.751Z,926.5
2017-09-28T02:27:24.780Z,926.48
2017-09-28T02:27:42.499Z,926.5
2017-09-28T02:28:01.836Z,926.51
2017-09-28T02:28:20.786Z,926.52
2017-09-28T02:28:39.098Z,926.52
2017-09-28T02:28:58.083Z,926.49
2017-09-28T02:29:16.350Z,926.52
2017-09-28T02:29:35.797Z,926.5
2017-09-28T02:29:54.776Z,926.52
2017-09-28T02:30:13.593Z,926.53
2017-09-28T02:30:33.093Z,926.46
2017-09-28T02:30:52.505Z,926.48
2017-09-28T02:31:11.788Z,926.5
2017-09-28T02:31:31.137Z,926.5
2017-09-28T02:31:49.915Z,926.53
2017-09-28T02:32:09.222Z,926.54
2017-09-28T02:32:26.928Z,926.51
2017-09-28T02:32:45.178Z,926.53
2017-09-28T02:33:03.953Z,926.53
2017-09-28T02:33:22.754Z,926.52
2017-09-28T02:33:41.554Z,926.52
2017-09-28T02:34:00.843Z,926.52
2017-09-28T02:34:20.324Z,926.49
2017-09-28T02:34:39.149Z,926.51
2017-09-28T02:34:58.622Z,926.53
2017-09-28T02:35:17.482Z,926.47
2017-09-28T02:35:36.270Z,926.52
2017-09-28T02:35:55.612Z,926.52
2017-09-28T02:36:14.116Z,926.51
2017-09-28T02:36:33.148Z,926.48
2017-09-28T02:36:51.947Z,926.49
2017-09-28T02:37:10.509Z,926.5
2017-09-28T02:37:29.954Z,926.47
2017-09-28T02:37:49.661Z,926.48
2017-09-28T02:38:09.252Z,926.47
2017-09-28T02:38:27.729Z,926.46
2017-09-28T02:38:47.067Z,926.46
2017-09-28T02:39:05.872Z,926.43
2017-09-28T02:39:25.085Z,926.49
2017-09-28T02:39:44.108Z,926.46
2017-09-28T02:40:03.503Z,926.49
2017-09-28T02:40:22.027Z,926.48
2017-09-28T02:40:40.468Z,926.48
2017-09-28T02:41:00.164Z,926.51
2017-09-28T02:41:19.584Z,926.46
2017-09-28T02:41:37.881Z,926.47
2017-09-28T02:41:57.511Z,926.49
2017-09-28T02:42:16.002Z,926.48
2017-09-28T02:42:34.744Z,926.43
2017-09-28T02:42:54.095Z,926.46
2017-09-28T02:43:12.402Z,926.46
2017-09-28T02:43:31.748Z,926.45
2017-09-28T02:43:51.101Z,926.46
2017-09-28T02:44:10.126Z,926.45
2017-09-28T02:44:28.895Z,926.44
2017-09-28T02:44:48.223Z,926.45
2017-09-28T02:45:07.036Z,926.46
2017-09-28T02:45:26.325Z,926.48
2017-09-28T02:45:45.619Z,926.47
2017-09-28T02:46:04.376Z,926.47
2017-09-28T02:46:23.153Z,926.45
2017-09-28T02:46:41.954Z,926.46
2017-09-28T02:47:01.291Z,926.46
2017-09-28T02:47:20.590Z,926.46
2017-09-28T02:47:39.876Z,926.45
2017-09-28T02:47:59.175Z,926.45
2017-09-28T02:48:18.477Z,926.44
2017-09-28T02:48:36.722Z,926.42
2017-09-28T02:48:56.029Z,926.43
2017-09-28T02:49:15.463Z,926.42
2017-09-28T02:49:34.760Z,926.43
2017-09-28T02:49:54.079Z,926.4
2017-09-28T02:50:12.366Z,926.43
2017-09-28T02:50:31.159Z,926.43
2017-09-28T02:50:50.452Z,926.4
2017-09-28T02:51:09.756Z,926.41
2017-09-28T02:51:28.542Z,926.43
2017-09-28T02:51:47.858Z,926.4
2017-09-28T02:52:06.625Z,926.4
2017-09-28T02:52:25.931Z,926.38
2017-09-28T02:52:44.193Z,926.37
2017-09-28T02:53:02.972Z,926.4
2017-09-28T02:53:22.300Z,926.38
2017-09-28T02:53:40.543Z,926.37
2017-09-28T02:53:59.322Z,926.33
2017-09-28T02:54:18.116Z,926.33
2017-09-28T02:54:37.399Z,926.37
2017-09-28T02:54:56.709Z,926.34
2017-09-28T02:55:15.470Z,926.34
2017-09-28T02:55:34.254Z,926.32
2017-09-28T02:55:53.560Z,926.33
2017-09-28T02:56:12.902Z,926.34
2017-09-28T02:56:31.671Z,926.35
2017-09-28T02:56:50.447Z,926.36
2017-09-28T02:57:09.231Z,926.35
2017-09-28T02:57:28.539Z,926.34
2017-09-28T02:57:47.301Z,926.41
2017-09-28T02:58:06.060Z,926.36
2017-09-28T02:58:24.837Z,926.33
2017-09-28T02:58:44.129Z,926.37
2017-09-28T02:59:02.893Z,926.37
2017-09-28T02:59:21.659Z,926.38
2017-09-28T02:59:40.443Z,926.37
2017-09-28T02:59:59.224Z,926.39
2017-09-28T03:00:17.450Z,926.4
2017-09-28T03:00:36.726Z,926.4
2017-09-28T03:00:55.996Z,926.36
2017-09-28T03:01:14.257Z,926.37
2017-09-28T03:01:33.048Z,926.4
2017-09-28T03:01:51.822Z,926.36
2017-09-28T03:02:10.573Z,926.37
2017-09-28T03:02:29.881Z,926.4
2017-09-28T03:02:49.402Z,926.4
2017-09-28T03:03:08.693Z,926.35
2017-09-28T03:03:26.954Z,926.36
2017-09-28T03:03:46.229Z,926.39
2017-09-28T03:04:05.006Z,926.36
2017-09-28T03:04:23.817Z,926.38
2017-09-28T03:04:43.109Z,926.36
2017-09-28T03:05:02.408Z,926.41
2017-09-28T03:05:21.170Z,926.38
2017-09-28T03:05:39.935Z,926.4
2017-09-28T03:05:58.738Z,926.41
2017-09-28T03:06:17.524Z,926.4
2017-09-28T03:06:36.275Z,926.4
2017-09-28T03:06:55.046Z,926.35
2017-09-28T03:07:13.817Z,926.34
2017-09-28T03:07:33.102Z,926.36
2017-09-28T03:07:52.386Z,926.35
2017-09-28T03:08:11.673Z,926.35
2017-09-28T03:08:30.439Z,926.35
2017-09-28T03:08:49.734Z,926.35
2017-09-28T03:09:08.489Z,926.31
2017-09-28T03:09:27.266Z,926.31
2017-09-28T03:09:46.576Z,926.31
2017-09-28T03:10:04.837Z,926.3
2017-09-28T03:10:23.596Z,926.29
2017-09-28T03:10:42.898Z,926.25
2017-09-28T03:11:01.671Z,926.26
2017-09-28T03:11:20.438Z,926.29
2017-09-28T03:11:39.730Z,926.28
2017-09-28T03:11:59.019Z,926.28
2017-09-28T03:12:17.767Z,926.26
2017-09-28T03:12:37.039Z,926.27
2017-09-28T03:12:56.323Z,926.23
2017-09-28T03:13:14.588Z,926.22
2017-09-28T03:13:33.375Z,926.2
2017-09-28T03:13:52.170Z,926.2
2017-09-28T03:14:10.956Z,926.19
2017-09-28T03:14:30.242Z,926.19
2017-09-28T03:14:49.036Z,926.16
2017-09-28T03:15:07.815Z,926.16
2017-09-28T03:15:26.080Z,926.19
2017-09-28T03:15:44.846Z,926.2
2017-09-28T03:16:03.607Z,926.2
2017-09-28T03:16:22.961Z,926.14
2017-09-28T03:16:42.261Z,926.17
2017-09-28T03:17:01.045Z,926.17
2017-09-28T03:17:19.842Z,926.15
2017-09-28T03:17:38.610Z,926.18
2017-09-28T03:17:57.378Z,926.2
2017-09-28T03:18:15.634Z,926.18
2017-09-28T03:18:34.942Z,926.15
2017-09-28T03:18:53.708Z,926.16
2017-09-28T03:19:13.012Z,926.19
2017-09-28T03:19:31.264Z,926.2
2017-09-28T03:19:50.030Z,926.18
2017-09-28T03:20:08.796Z,926.2
2017-09-28T03:20:28.097Z,926.16
2017-09-28T03:20:46.870Z,926.21
2017-09-28T03:21:06.201Z,926.16
2017-09-28T03:21:24.973Z,926.19
2017-09-28T03:21:44.267Z,926.16
2017-09-28T03:22:03.018Z,926.18
2017-09-28T03:22:22.327Z,926.18
2017-09-28T03:22:41.627Z,926.17
2017-09-28T03:23:00.386Z,926.2
2017-09-28T03:23:19.693Z,926.2
2017-09-28T03:23:39.001Z,926.16
2017-09-28T03:23:58.370Z,926.16
2017-09-28T03:24:17.123Z,926.16
2017-09-28T03:24:36.391Z,926.14
2017-09-28T03:24:55.652Z,926.16
2017-09-28T03:25:14.980Z,926.13
2017-09-28T03:25:34.252Z,926.16
2017-09-28T03:25:53.546Z,926.13
2017-09-28T03:26:12.828Z,926.15
2017-09-28T03:26:32.104Z,926.18
2017-09-28T03:26:51.410Z,926.16
2017-09-28T03:27:10.202Z,926.14
2017-09-28T03:27:29.490Z,926.16
2017-09-28T03:27:47.755Z,926.11
2017-09-28T03:28:06.642Z,926.14
2017-09-28T03:28:25.398Z,926.12
2017-09-28T03:28:44.696Z,926.13
2017-09-28T03:29:03.460Z,926.19
2017-09-28T03:29:21.686Z,926.17
2017-09-28T03:29:40.999Z,926.14
2017-09-28T03:29:59.310Z,926.18
2017-09-28T03:30:17.577Z,926.16
2017-09-28T03:30:36.872Z,926.14
2017-09-28T03:30:56.225Z,926.12
2017-09-28T03:31:14.470Z,926.11
2017-09-28T03:31:33.228Z,926.12
2017-09-28T03:31:51.977Z,926.12
2017-09-28T03:32:10.288Z,926.15
2017-09-28T03:32:29.078Z,926.14
2017-09-28T03:32:47.856Z,926.17
2017-09-28T03:33:07.141Z,926.11
2017-09-28T03:33:26.427Z,926.12
2017-09-28T03:33:45.210Z,926.15
2017-09-28T03:34:04.499Z,926.18
2017-09-28T03:34:23.281Z,926.17
2017-09-28T03:34:41.531Z,926.15
2017-09-28T03:35:00.303Z,926.12
2017-09-28T03:35:19.599Z,926.15
2017-09-28T03:35:38.368Z,926.16
2017-09-28T03:35:57.118Z,926.13
2017-09-28T03:36:16.422Z,926.16
2017-09-28T03:36:35.183Z,926.14
2017-09-28T03:36:53.952Z,926.17
2017-09-28T03:37:12.726Z,926.15
2017-09-28T03:37:31.513Z,926.14
2017-09-28T03:37:50.294Z,926.17
2017-09-28T03:38:08.042Z,926.12
2017-09-28T03:38:26.294Z,926.16
2017-09-28T03:38:45.103Z,926.16
2017-09-28T03:39:04.386Z,926.15
2017-09-28T03:39:23.179Z,926.16
2017-09-28T03:39:41.959Z,926.14
2017-09-28T03:40:01.278Z,926.13
2017-09-28T03:40:20.582Z,926.13
2017-09-28T03:40:39.363Z,926.14
2017-09-28T03:40:58.664Z,926.14
2017-09-28T03:41:16.918Z,926.12
2017-09-28T03:41:36.272Z,926.16
2017-09-28T03:41:55.570Z,926.13
2017-09-28T03:42:13.291Z,926.11
2017-09-28T03:42:31.554Z,926.13
2017-09-28T03:42:50.333Z,926.11
2017-09-28T03:43:08.560Z,926.12
2017-09-28T03:43:27.846Z,926.12
2017-09-28T03:43:46.632Z,926.13
2017-09-28T03:44:05.888Z,926.11
2017-09-28T03:44:24.642Z,926.15
2017-09-28T03:44:43.938Z,926.13
2017-09-28T03:45:02.703Z,926.14
2017-09-28T03:45:21.988Z,926.11
2017-09-28T03:45:41.293Z,926.11
2017-09-28T03:46:00.061Z,926.12
2017-09-28T03:46:18.838Z,926.05
2017-09-28T03:46:38.122Z,926.07
2017-09-28T03:46:57.428Z,926.07
2017-09-28T03:47:16.213Z,926.08
2017-09-28T03:47:34.461Z,926.06
2017-09-28T03:47:52.693Z,926.07
2017-09-28T03:48:11.464Z,926.06
2017-09-28T03:48:30.751Z,926.09
2017-09-28T03:48:49.536Z,926.08
2017-09-28T03:49:07.767Z,926.06
2017-09-28T03:49:26.560Z,926.09
2017-09-28T03:49:45.340Z,926.07
2017-09-28T03:50:04.617Z,926.05
2017-09-28T03:50:23.929Z,926.05
2017-09-28T03:50:43.240Z,926.06
2017-09-28T03:51:01.989Z,926.06
2017-09-28T03:51:20.736Z,926.04
2017-09-28T03:51:40.029Z,926.09
2017-09-28T03:51:58.805Z,926.02
2017-09-28T03:52:17.549Z,926.04
2017-09-28T03:52:36.823Z,926.06
2017-09-28T03:52:56.143Z,926.09
2017-09-28T03:53:15.544Z,926.11
2017-09-28T03:53:34.829Z,926.07
2017-09-28T03:53:53.615Z,926.07
2017-09-28T03:54:12.407Z,926.07
2017-09-28T03:54:31.720Z,926.07
2017-09-28T03:54:51.011Z,926.09
2017-09-28T03:55:10.283Z,926.08
2017-09-28T03:55:29.588Z,926.08
2017-09-28T03:55:48.372Z,926.09
2017-09-28T03:56:07.140Z,926.09
2017-09-28T03:56:26.437Z,926.12
2017-09-28T03:56:45.248Z,926.11
2017-09-28T03:57:04.016Z,926.05
2017-09-28T03:57:23.323Z,926.05